createdAt,value
2023-02-16T00:01:53.341Z,90.96
2023-02-16T00:03:57.395Z,90.55
2023-02-16T00:06:20.583Z,90.66
2023-02-16T00:08:35.132Z,90.96
2023-02-16T00:10:39.346Z,90.51
2023-02-16T00:13:01.025Z,90.57
2023-02-16T00:15:17.796Z,90.37
2023-02-16T00:17:20.526Z,90.57
2023-02-16T00:19:25.901Z,90.13
2023-02-16T00:21:28.574Z,90.00
2023-02-16T00:23:31.243Z,89.63
2023-02-16T00:25:33.892Z,90.56
2023-02-16T00:27:37.572Z,89.93
2023-02-16T00:29:40.215Z,90.50
2023-02-16T00:31:43.051Z,90.35
2023-02-16T00:33:46.581Z,90.53
2023-02-16T00:35:49.345Z,90.86
2023-02-16T00:37:52.509Z,90.84
2023-02-16T00:39:55.094Z,90.87
2023-02-16T00:42:06.379Z,91.17
2023-02-16T00:44:17.752Z,91.13
2023-02-16T00:46:20.776Z,91.42
2023-02-16T00:48:25.040Z,91.52
2023-02-16T00:50:31.707Z,91.64
2023-02-16T00:52:40.139Z,91.57
2023-02-16T00:54:42.766Z,91.66
2023-02-16T00:56:46.805Z,91.58
2023-02-16T00:58:52.920Z,91.83
2023-02-16T01:01:17.913Z,91.80
2023-02-16T01:03:24.568Z,91.63
2023-02-16T01:05:27.750Z,91.77
2023-02-16T01:07:48.853Z,92.08
2023-02-16T01:10:09.969Z,92.28
2023-02-16T01:12:18.974Z,91.54
2023-02-16T01:14:21.829Z,91.72
2023-02-16T01:16:27.800Z,91.71
2023-02-16T01:18:30.470Z,91.32
2023-02-16T01:20:35.487Z,91.33
2023-02-16T01:22:38.204Z,91.94
2023-02-16T01:24:40.811Z,91.38
2023-02-16T01:26:49.262Z,91.42
2023-02-16T01:28:52.028Z,91.21
2023-02-16T01:30:55.094Z,91.67
2023-02-16T01:32:57.918Z,91.72
2023-02-16T01:35:00.666Z,91.58
2023-02-16T01:37:03.279Z,91.55
2023-02-16T01:39:06.724Z,91.09
2023-02-16T01:41:37.877Z,91.67
2023-02-16T01:43:48.467Z,90.95
2023-02-16T01:46:15.119Z,91.39
2023-02-16T01:48:27.801Z,91.73
2023-02-16T01:50:43.528Z,91.62
2023-02-16T01:53:14.493Z,91.60
2023-02-16T01:55:24.718Z,91.08
2023-02-16T01:57:39.680Z,91.13
2023-02-16T01:59:45.292Z,91.56
2023-02-16T02:01:58.486Z,90.84
2023-02-16T02:04:20.316Z,91.25
2023-02-16T02:06:31.520Z,91.13
2023-02-16T02:08:44.133Z,91.04
2023-02-16T02:11:08.469Z,90.98
2023-02-16T02:13:38.072Z,91.39
2023-02-16T02:16:04.209Z,91.41
2023-02-16T02:18:06.863Z,91.36
2023-02-16T02:20:17.140Z,91.17
2023-02-16T02:22:44.010Z,91.39
2023-02-16T02:25:24.031Z,91.88
2023-02-16T02:27:28.334Z,91.55
2023-02-16T02:30:02.711Z,91.50
2023-02-16T02:32:50.744Z,91.45
2023-02-16T02:35:19.322Z,91.36
2023-02-16T02:37:35.406Z,91.19
2023-02-16T02:39:55.524Z,91.56
2023-02-16T02:42:05.911Z,91.10
2023-02-16T02:44:10.077Z,91.22
2023-02-16T02:46:27.098Z,90.99
2023-02-16T02:48:33.799Z,90.89
2023-02-16T02:51:07.042Z,91.14
2023-02-16T02:53:14.407Z,91.13
2023-02-16T02:55:40.827Z,91.55
2023-02-16T02:58:08.278Z,91.47
2023-02-16T03:00:41.751Z,91.45
2023-02-16T03:02:48.584Z,90.89
2023-02-16T03:04:54.239Z,91.61
2023-02-16T03:06:59.190Z,91.12
2023-02-16T03:09:07.338Z,92.04
2023-02-16T03:11:31.119Z,91.73
2023-02-16T03:13:39.701Z,91.83
2023-02-16T03:15:45.873Z,92.49
2023-02-16T03:18:07.379Z,92.04
2023-02-16T03:20:33.957Z,92.26
2023-02-16T03:22:56.793Z,92.01
2023-02-16T03:25:18.017Z,91.66
2023-02-16T03:27:47.772Z,91.91
2023-02-16T03:29:52.193Z,92.00
2023-02-16T03:31:56.339Z,92.41
2023-02-16T03:33:59.283Z,91.92
2023-02-16T03:36:02.954Z,92.41
2023-02-16T03:38:06.462Z,92.36
2023-02-16T03:40:31.174Z,92.18
2023-02-16T03:42:33.852Z,92.24
2023-02-16T03:44:36.531Z,91.60
2023-02-16T03:46:39.331Z,92.12
2023-02-16T03:48:41.988Z,92.33
2023-02-16T03:50:44.704Z,92.25
2023-02-16T03:52:47.515Z,92.22
2023-02-16T03:54:50.239Z,92.64
2023-02-16T03:56:52.888Z,93.32
2023-02-16T03:58:55.560Z,93.37
2023-02-16T04:00:59.206Z,93.94
2023-02-16T04:03:03.261Z,93.87
2023-02-16T04:05:06.260Z,94.04
2023-02-16T04:07:08.930Z,93.82
2023-02-16T04:09:11.643Z,93.78
2023-02-16T04:11:33.011Z,93.65
2023-02-16T04:13:35.586Z,93.89
2023-02-16T04:15:38.312Z,93.96
2023-02-16T04:17:41.732Z,94.29
2023-02-16T04:19:44.302Z,93.76
2023-02-16T04:21:46.959Z,93.84
2023-02-16T04:23:49.549Z,93.68
2023-02-16T04:25:52.195Z,93.81
2023-02-16T04:27:55.593Z,93.74
2023-02-16T04:29:58.357Z,93.72
2023-02-16T04:32:01.258Z,93.89
2023-02-16T04:34:04.264Z,93.21
2023-02-16T04:36:07.851Z,93.20
2023-02-16T04:38:10.661Z,92.73
2023-02-16T04:40:15.448Z,93.16
2023-02-16T04:42:18.035Z,93.29
2023-02-16T04:44:20.766Z,93.42
2023-02-16T04:46:24.184Z,93.62
2023-02-16T04:48:26.989Z,93.30
2023-02-16T04:50:29.914Z,93.11
2023-02-16T04:52:32.692Z,93.23
2023-02-16T04:54:35.424Z,93.32
2023-02-16T04:56:38.127Z,93.75
2023-02-16T04:58:41.177Z,93.43
2023-02-16T05:00:43.872Z,93.19
2023-02-16T05:02:46.561Z,92.98
2023-02-16T05:04:49.295Z,92.74
2023-02-16T05:06:52.104Z,92.86
2023-02-16T05:08:54.754Z,91.98
2023-02-16T05:11:16.187Z,91.78
2023-02-16T05:13:37.215Z,92.38
2023-02-16T05:15:40.355Z,91.95
2023-02-16T05:17:43.065Z,91.50
2023-02-16T05:19:48.541Z,91.68
2023-02-16T05:21:51.210Z,91.39
2023-02-16T05:23:53.817Z,91.71
2023-02-16T05:25:56.513Z,91.35
2023-02-16T05:27:59.424Z,91.07
2023-02-16T05:30:04.571Z,90.44
2023-02-16T05:32:07.702Z,89.97
2023-02-16T05:34:10.677Z,90.23
2023-02-16T05:36:13.354Z,89.78
2023-02-16T05:38:15.982Z,90.23
2023-02-16T05:40:18.692Z,89.52
2023-02-16T05:42:21.340Z,90.11
2023-02-16T05:44:24.064Z,89.55
2023-02-16T05:46:28.141Z,89.92
2023-02-16T05:48:30.740Z,90.33
2023-02-16T05:50:33.364Z,89.57
2023-02-16T05:52:35.998Z,89.58
2023-02-16T05:54:38.710Z,88.61
2023-02-16T05:56:41.450Z,89.09
2023-02-16T05:58:44.191Z,88.00
2023-02-16T06:00:47.306Z,88.60
2023-02-16T06:02:50.091Z,87.74
2023-02-16T06:04:52.716Z,88.00
2023-02-16T06:06:58.051Z,87.73
2023-02-16T06:09:02.001Z,87.35
2023-02-16T06:11:28.655Z,87.13
2023-02-16T06:13:31.408Z,86.97
2023-02-16T06:15:34.014Z,87.37
2023-02-16T06:17:37.039Z,87.33
2023-02-16T06:19:39.678Z,86.65
2023-02-16T06:21:42.492Z,86.84
2023-02-16T06:23:45.117Z,85.68
2023-02-16T06:25:51.498Z,86.05
2023-02-16T06:27:55.947Z,86.06
2023-02-16T06:29:58.730Z,85.58
2023-02-16T06:32:01.544Z,84.95
2023-02-16T06:34:05.169Z,84.80
2023-02-16T06:36:08.360Z,85.14
2023-02-16T06:38:10.975Z,84.89
2023-02-16T06:40:14.605Z,84.57
2023-02-16T06:42:17.434Z,84.16
2023-02-16T06:44:20.261Z,84.53
2023-02-16T06:46:23.021Z,84.12
2023-02-16T06:48:25.745Z,83.42
2023-02-16T06:50:28.385Z,83.57
2023-02-16T06:52:31.102Z,81.92
2023-02-16T06:54:33.755Z,81.36
2023-02-16T06:56:38.027Z,81.33
2023-02-16T07:00:43.836Z,81.66
2023-02-16T07:02:47.010Z,81.85
2023-02-16T07:04:49.645Z,82.11
2023-02-16T07:06:52.836Z,81.78
2023-02-16T07:08:56.264Z,82.90
2023-02-16T07:10:58.860Z,82.97
2023-02-16T07:13:01.585Z,83.38
2023-02-16T07:15:05.673Z,83.01
2023-02-16T07:17:08.612Z,83.99
2023-02-16T07:19:11.643Z,83.82
2023-02-16T07:21:14.940Z,84.16
2023-02-16T07:23:18.053Z,83.42
2023-02-16T07:25:20.608Z,83.37
2023-02-16T07:27:24.168Z,83.60
2023-02-16T07:29:26.913Z,83.66
2023-02-16T07:31:30.611Z,83.89
2023-02-16T07:33:34.565Z,82.97
2023-02-16T07:35:37.983Z,82.65
2023-02-16T07:37:40.676Z,83.22
2023-02-16T07:39:43.317Z,82.62
2023-02-16T07:41:46.034Z,81.99
2023-02-16T07:43:48.669Z,82.82
2023-02-16T07:45:52.034Z,82.27
2023-02-16T07:47:54.652Z,82.07
2023-02-16T07:49:57.247Z,81.21
2023-02-16T07:51:59.875Z,81.17
2023-02-16T07:54:02.510Z,81.62
2023-02-16T07:56:05.398Z,81.16
2023-02-16T07:58:08.984Z,81.41
2023-02-16T08:00:12.114Z,80.64
2023-02-16T08:02:16.534Z,80.70
2023-02-16T08:04:19.274Z,81.23
2023-02-16T08:06:22.466Z,80.99
2023-02-16T08:08:25.098Z,80.21
2023-02-16T08:10:27.702Z,80.03
2023-02-16T08:12:30.308Z,80.64
2023-02-16T08:14:32.998Z,80.65
2023-02-16T08:16:35.993Z,80.37
2023-02-16T08:18:39.698Z,80.15
2023-02-16T08:21:01.413Z,80.40
2023-02-16T08:23:08.095Z,79.97
2023-02-16T08:25:11.863Z,78.91
2023-02-16T08:27:15.475Z,78.88
2023-02-16T08:29:18.375Z,78.60
2023-02-16T08:31:23.889Z,78.31
2023-02-16T08:33:26.634Z,77.70
2023-02-16T08:35:32.538Z,78.12
2023-02-16T08:37:37.552Z,77.52
2023-02-16T08:39:40.922Z,77.21
2023-02-16T08:41:44.969Z,76.53
2023-02-16T08:43:49.132Z,76.26
2023-02-16T08:45:52.023Z,74.55
2023-02-16T08:47:54.681Z,74.15
2023-02-16T08:49:57.346Z,73.63
2023-02-16T08:52:01.856Z,73.56
2023-02-16T08:54:08.318Z,74.11
2023-02-16T08:56:11.344Z,73.78
2023-02-16T08:58:15.956Z,72.86
2023-02-16T09:00:34.208Z,73.75
2023-02-16T09:02:38.291Z,74.45
2023-02-16T09:04:41.292Z,74.18
2023-02-16T09:06:45.908Z,73.91
2023-02-16T09:08:57.079Z,73.99
2023-02-16T09:11:06.883Z,73.29
2023-02-16T09:13:16.358Z,74.35
2023-02-16T09:15:19.107Z,74.06
2023-02-16T09:17:21.817Z,74.07
2023-02-16T09:19:24.823Z,74.30
2023-02-16T09:21:32.458Z,75.13
2023-02-16T09:23:35.884Z,74.52
2023-02-16T09:25:40.353Z,75.33
2023-02-16T09:27:43.649Z,74.13
2023-02-16T09:29:46.237Z,74.56
2023-02-16T09:31:48.963Z,74.54
2023-02-16T09:33:53.911Z,73.88
2023-02-16T09:35:56.652Z,73.92
2023-02-16T09:37:59.237Z,74.39
2023-02-16T09:40:02.270Z,73.46
2023-02-16T09:42:19.730Z,73.21
2023-02-16T09:44:22.321Z,73.18
2023-02-16T09:46:26.928Z,73.44
2023-02-16T09:48:36.400Z,73.80
2023-02-16T09:50:53.356Z,74.55
2023-02-16T09:53:06.927Z,73.91
2023-02-16T09:55:15.492Z,74.49
2023-02-16T09:57:37.985Z,73.88
2023-02-16T09:59:43.744Z,74.88
2023-02-16T10:02:06.089Z,74.84
2023-02-16T10:04:30.288Z,75.51
2023-02-16T10:06:56.442Z,75.37
2023-02-16T10:09:16.686Z,75.60
2023-02-16T10:11:38.640Z,75.70
2023-02-16T10:13:49.857Z,75.14
2023-02-16T10:15:55.778Z,75.50
2023-02-16T10:18:08.728Z,75.59
2023-02-16T10:20:17.225Z,75.92
2023-02-16T10:22:36.265Z,76.81
2023-02-16T10:25:09.006Z,75.81
2023-02-16T10:27:16.525Z,75.00
2023-02-16T10:29:22.347Z,74.44
2023-02-16T10:31:40.614Z,73.97
2023-02-16T10:33:46.861Z,74.71
2023-02-16T10:35:56.397Z,74.60
2023-02-16T10:37:59.473Z,74.42
2023-02-16T10:40:44.315Z,74.91
2023-02-16T10:42:54.268Z,74.71
2023-02-16T10:45:51.916Z,73.52
2023-02-16T10:47:54.992Z,74.35
2023-02-16T10:49:58.209Z,73.67
2023-02-16T10:52:03.985Z,74.94
2023-02-16T10:54:31.532Z,75.93
2023-02-16T10:56:52.664Z,76.18
2023-02-16T10:58:57.681Z,76.05
2023-02-16T11:01:27.174Z,75.81
2023-02-16T11:03:33.863Z,76.45
2023-02-16T11:05:41.764Z,76.42
2023-02-16T11:08:04.700Z,76.74
2023-02-16T11:10:21.134Z,76.85
2023-02-16T11:12:29.322Z,76.87
2023-02-16T11:14:32.089Z,77.30
2023-02-16T11:16:35.353Z,77.13
2023-02-16T11:18:42.271Z,77.16
2023-02-16T11:20:46.057Z,78.03
2023-02-16T11:22:50.154Z,77.35
2023-02-16T11:24:53.504Z,78.02
2023-02-16T11:27:07.047Z,77.44
2023-02-16T11:29:23.098Z,77.46
2023-02-16T11:31:30.839Z,77.97
2023-02-16T11:33:35.074Z,77.21
2023-02-16T11:35:42.983Z,78.91
2023-02-16T11:37:46.570Z,78.97
2023-02-16T11:39:53.538Z,78.94
2023-02-16T11:42:04.256Z,78.41
2023-02-16T11:44:27.843Z,78.64
2023-02-16T11:46:40.145Z,79.13
2023-02-16T11:48:43.803Z,79.31
2023-02-16T11:51:11.362Z,79.40
2023-02-16T11:53:27.645Z,79.34
2023-02-16T11:55:41.996Z,79.69
2023-02-16T11:57:45.239Z,79.58
2023-02-16T11:59:47.943Z,79.16
2023-02-16T12:02:17.416Z,80.11
2023-02-16T12:04:34.973Z,79.62
2023-02-16T12:07:05.214Z,79.98
2023-02-16T12:09:10.680Z,79.76
2023-02-16T12:11:28.988Z,79.63
2023-02-16T12:13:31.583Z,80.11
2023-02-16T12:16:24.212Z,79.81
2023-02-16T12:18:34.604Z,80.50
2023-02-16T12:20:59.363Z,80.59
2023-02-16T12:23:29.201Z,80.94
2023-02-16T12:25:42.629Z,81.56
2023-02-16T12:27:51.283Z,80.92
2023-02-16T12:30:12.382Z,81.01
2023-02-16T12:32:42.688Z,81.95
2023-02-16T12:35:13.772Z,82.28
2023-02-16T12:37:33.931Z,82.69
2023-02-16T12:39:37.146Z,82.78
2023-02-16T12:41:46.050Z,82.59
2023-02-16T12:43:54.854Z,82.90
2023-02-16T12:46:05.905Z,83.41
2023-02-16T12:48:29.913Z,83.31
2023-02-16T12:50:35.417Z,83.60
2023-02-16T12:52:46.938Z,83.72
2023-02-16T12:54:55.593Z,84.14
2023-02-16T12:57:04.869Z,84.07
2023-02-16T12:59:18.269Z,84.38
2023-02-16T13:01:25.649Z,84.19
2023-02-16T13:03:40.734Z,84.57
2023-02-16T13:05:50.173Z,85.12
2023-02-16T13:08:02.975Z,85.07
2023-02-16T13:10:20.636Z,85.27
2023-02-16T13:12:47.533Z,85.44
2023-02-16T13:15:00.878Z,85.87
2023-02-16T13:17:12.467Z,86.13
2023-02-16T13:19:16.810Z,86.20
2023-02-16T13:21:53.473Z,87.02
2023-02-16T13:24:32.239Z,87.09
2023-02-16T13:26:48.796Z,86.70
2023-02-16T13:29:39.646Z,86.87
2023-02-16T13:32:06.508Z,87.54
2023-02-16T13:34:18.927Z,87.39
2023-02-16T13:36:42.470Z,87.96
2023-02-16T13:39:29.955Z,88.61
2023-02-16T13:41:44.762Z,89.06
2023-02-16T13:44:02.094Z,89.49
2023-02-16T13:46:12.475Z,89.43
2023-02-16T13:48:22.975Z,89.91
2023-02-16T13:50:30.248Z,90.24
2023-02-16T13:52:43.518Z,90.31
2023-02-16T13:54:50.213Z,90.74
2023-02-16T13:56:52.895Z,91.23
2023-02-16T13:59:01.064Z,91.04
2023-02-16T14:01:28.594Z,91.33
2023-02-16T14:03:38.338Z,91.27
2023-02-16T14:05:46.303Z,91.51
2023-02-16T14:08:11.258Z,91.51
2023-02-16T14:10:14.962Z,91.74
2023-02-16T14:12:36.338Z,91.68
2023-02-16T14:14:56.097Z,92.09
2023-02-16T14:17:35.428Z,92.26
2023-02-16T14:19:38.112Z,92.42
2023-02-16T14:21:50.492Z,92.81
2023-02-16T14:23:58.661Z,92.30
2023-02-16T14:26:07.206Z,93.31
2023-02-16T14:28:51.007Z,93.01
2023-02-16T14:30:57.033Z,92.73
2023-02-16T14:33:12.793Z,92.85
2023-02-16T14:35:30.173Z,92.86
2023-02-16T14:37:42.427Z,93.04
2023-02-16T14:40:06.892Z,93.22
2023-02-16T14:42:34.332Z,92.86
2023-02-16T14:45:07.680Z,92.79
2023-02-16T14:47:35.072Z,92.92
2023-02-16T14:49:49.640Z,92.78
2023-02-16T14:52:40.788Z,92.83
2023-02-16T14:55:28.485Z,92.31
2023-02-16T14:57:53.679Z,92.00
2023-02-16T15:00:01.383Z,92.41
2023-02-16T15:02:27.924Z,92.72
2023-02-16T15:04:33.008Z,92.48
2023-02-16T15:06:47.895Z,93.18
2023-02-16T15:08:58.428Z,92.99
2023-02-16T15:11:13.039Z,92.85
2023-02-16T15:13:29.781Z,92.51
2023-02-16T15:15:48.889Z,93.16
2023-02-16T15:17:53.140Z,93.07
2023-02-16T15:20:04.705Z,93.64
2023-02-16T15:22:11.475Z,92.74
2023-02-16T15:24:24.054Z,93.24
2023-02-16T15:26:30.986Z,92.75
2023-02-16T15:28:41.008Z,92.54
2023-02-16T15:30:48.640Z,92.54
2023-02-16T15:32:56.858Z,92.66
2023-02-16T15:34:59.919Z,92.78
2023-02-16T15:37:29.040Z,92.59
2023-02-16T15:39:48.285Z,92.25
2023-02-16T15:42:19.867Z,92.35
2023-02-16T15:44:34.522Z,92.54
2023-02-16T15:46:43.864Z,92.05
2023-02-16T15:48:46.917Z,91.51
2023-02-16T15:50:53.750Z,91.85
2023-02-16T15:52:56.424Z,91.66
2023-02-16T15:55:02.177Z,91.85
2023-02-16T15:57:21.420Z,91.45
2023-02-16T15:59:38.834Z,91.72
2023-02-16T16:01:41.992Z,91.62
2023-02-16T16:03:46.702Z,92.21
2023-02-16T16:06:06.554Z,91.99
2023-02-16T16:08:26.660Z,92.02
2023-02-16T16:10:36.611Z,92.32
2023-02-16T16:12:39.852Z,92.49
2023-02-16T16:14:53.259Z,92.10
2023-02-16T16:16:57.150Z,92.68
2023-02-16T16:19:09.087Z,92.40
2023-02-16T16:21:15.694Z,92.14
2023-02-16T16:23:19.124Z,92.42
2023-02-16T16:25:29.779Z,92.96
2023-02-16T16:27:37.372Z,92.74
2023-02-16T16:29:47.727Z,93.08
2023-02-16T16:31:53.728Z,93.56
2023-02-16T16:34:00.667Z,93.56
2023-02-16T16:36:12.285Z,93.42
2023-02-16T16:38:29.749Z,93.17
2023-02-16T16:40:39.934Z,93.69
2023-02-16T16:43:02.426Z,93.47
2023-02-16T16:45:23.263Z,93.22
2023-02-16T16:47:35.065Z,93.40
2023-02-16T16:49:37.844Z,93.63
2023-02-16T16:51:42.101Z,93.41
2023-02-16T16:53:51.198Z,93.89
2023-02-16T16:55:53.917Z,93.55
2023-02-16T16:58:01.585Z,93.67
2023-02-16T17:00:05.720Z,94.30
2023-02-16T17:02:13.716Z,94.00
2023-02-16T17:04:17.173Z,93.92
2023-02-16T17:06:32.131Z,93.90
2023-02-16T17:08:44.658Z,93.62
2023-02-16T17:10:48.610Z,93.96
2023-02-16T17:12:55.865Z,93.54
2023-02-16T17:14:58.854Z,93.70
2023-02-16T17:17:01.930Z,93.95
2023-02-16T17:19:04.776Z,93.82
2023-02-16T17:21:07.810Z,94.09
2023-02-16T17:23:15.386Z,94.38
2023-02-16T17:25:18.245Z,94.04
2023-02-16T17:27:21.324Z,94.49
2023-02-16T17:29:23.995Z,94.59
2023-02-16T17:31:26.797Z,94.48
2023-02-16T17:33:29.503Z,95.04
2023-02-16T17:35:32.530Z,94.77
2023-02-16T17:37:35.780Z,94.84
2023-02-16T17:39:38.415Z,94.56
2023-02-16T17:41:41.109Z,95.37
2023-02-16T17:43:43.780Z,95.10
2023-02-16T17:45:47.193Z,94.92
2023-02-16T17:47:52.306Z,94.60
2023-02-16T17:49:55.435Z,94.83
2023-02-16T17:51:58.053Z,94.72
2023-02-16T17:54:00.775Z,95.08
2023-02-16T17:56:03.832Z,94.85
2023-02-16T17:58:06.702Z,94.83
2023-02-16T18:00:16.192Z,94.59
2023-02-16T18:02:18.824Z,94.73
2023-02-16T18:04:24.395Z,94.22
2023-02-16T18:06:28.951Z,94.64
2023-02-16T18:08:47.905Z,94.87
2023-02-16T18:10:54.752Z,94.71
2023-02-16T18:12:57.789Z,95.10
2023-02-16T18:15:00.792Z,95.44
2023-02-16T18:17:04.866Z,95.15
2023-02-16T18:19:09.993Z,94.83
2023-02-16T18:21:12.631Z,95.02
2023-02-16T18:23:16.744Z,94.73
2023-02-16T18:25:20.424Z,95.06
2023-02-16T18:27:23.300Z,95.26
2023-02-16T18:29:25.909Z,94.97
2023-02-16T18:31:28.733Z,95.64
2023-02-16T18:33:32.151Z,95.04
2023-02-16T18:35:34.797Z,95.04
2023-02-16T18:37:37.584Z,95.15
2023-02-16T18:39:41.113Z,95.99
2023-02-16T18:41:43.724Z,95.92
2023-02-16T18:43:46.385Z,96.14
2023-02-16T18:45:49.346Z,95.90
2023-02-16T18:47:52.381Z,96.23
2023-02-16T18:49:57.089Z,96.48
2023-02-16T18:51:59.658Z,95.93
2023-02-16T18:54:02.327Z,96.45
2023-02-16T18:56:09.192Z,96.37
2023-02-16T18:58:14.371Z,96.26
2023-02-16T19:00:17.647Z,96.40
2023-02-16T19:02:20.286Z,96.24
2023-02-16T19:04:23.508Z,96.48
2023-02-16T19:06:26.503Z,96.21
2023-02-16T19:08:29.192Z,96.21
2023-02-16T19:10:32.506Z,96.62
2023-02-16T19:12:35.209Z,96.43
2023-02-16T19:14:38.008Z,95.88
2023-02-16T19:16:41.260Z,96.22
2023-02-16T19:18:44.027Z,95.83
2023-02-16T19:20:47.960Z,96.50
2023-02-16T19:22:50.804Z,96.38
2023-02-16T19:24:53.548Z,96.72
2023-02-16T19:26:56.132Z,96.58
2023-02-16T19:28:59.157Z,96.67
2023-02-16T19:31:04.696Z,96.25
2023-02-16T19:33:07.423Z,96.76
2023-02-16T19:35:11.116Z,96.55
2023-02-16T19:37:13.826Z,96.49
2023-02-16T19:39:16.557Z,96.62
2023-02-16T19:41:28.057Z,96.28
2023-02-16T19:43:30.689Z,96.13
2023-02-16T19:45:37.491Z,96.59
2023-02-16T19:47:40.192Z,96.64
2023-02-16T19:49:43.079Z,96.23
2023-02-16T19:51:47.806Z,96.84
2023-02-16T19:53:51.710Z,96.41
2023-02-16T19:55:54.942Z,96.25
2023-02-16T19:57:57.555Z,96.50
2023-02-16T20:00:00.129Z,96.05
2023-02-16T20:02:03.569Z,96.50
2023-02-16T20:04:06.189Z,96.81
2023-02-16T20:06:19.932Z,96.17
2023-02-16T20:08:22.625Z,96.75
2023-02-16T20:10:25.260Z,96.37
2023-02-16T20:12:28.891Z,95.91
2023-02-16T20:14:31.539Z,96.23
2023-02-16T20:16:35.292Z,95.63
2023-02-16T20:18:38.949Z,95.62
2023-02-16T20:20:41.663Z,95.71
2023-02-16T20:22:44.964Z,95.65
2023-02-16T20:24:47.604Z,96.31
2023-02-16T20:26:52.200Z,96.33
2023-02-16T20:28:55.984Z,96.15
2023-02-16T20:30:58.752Z,96.25
2023-02-16T20:33:01.446Z,96.01
2023-02-16T20:35:07.424Z,96.27
2023-02-16T20:37:10.111Z,96.59
2023-02-16T20:39:12.720Z,96.47
2023-02-16T20:41:15.453Z,96.30
2023-02-16T20:43:21.081Z,96.55
2023-02-16T20:45:23.731Z,96.44
2023-02-16T20:47:26.460Z,96.44
2023-02-16T20:49:29.636Z,95.85
2023-02-16T20:51:32.663Z,96.35
2023-02-16T20:53:35.714Z,96.07
2023-02-16T20:55:38.282Z,95.97
2023-02-16T20:57:40.965Z,96.10
2023-02-16T20:59:43.622Z,96.28
2023-02-16T21:01:52.124Z,96.47
2023-02-16T21:04:00.694Z,96.55
2023-02-16T21:06:04.023Z,96.97
2023-02-16T21:08:06.993Z,96.69
2023-02-16T21:10:11.850Z,97.06
2023-02-16T21:12:14.503Z,97.02
2023-02-16T21:14:17.222Z,97.15
2023-02-16T21:16:19.926Z,97.14
2023-02-16T21:18:22.773Z,97.10
2023-02-16T21:20:25.408Z,96.79
2023-02-16T21:22:28.175Z,96.65
2023-02-16T21:24:30.868Z,97.02
2023-02-16T21:26:33.536Z,96.28
2023-02-16T21:28:36.537Z,95.96
2023-02-16T21:30:39.164Z,97.00
2023-02-16T21:32:41.885Z,96.67
2023-02-16T21:34:44.679Z,96.59
2023-02-16T21:36:47.581Z,97.11
2023-02-16T21:38:50.515Z,97.03
2023-02-16T21:41:11.556Z,96.60
2023-02-16T21:43:14.286Z,96.43
2023-02-16T21:45:17.600Z,96.86
2023-02-16T21:47:38.969Z,97.03
2023-02-16T21:49:41.674Z,96.88
2023-02-16T21:51:46.504Z,96.33
2023-02-16T21:53:49.189Z,96.91
2023-02-16T21:56:10.444Z,96.74
2023-02-16T21:58:13.130Z,96.69
2023-02-16T22:00:16.263Z,96.97
2023-02-16T22:02:18.880Z,96.47
2023-02-16T22:04:22.659Z,96.95
2023-02-16T22:06:38.110Z,96.51
2023-02-16T22:08:40.725Z,96.44
2023-02-16T22:10:43.469Z,96.34
2023-02-16T22:12:46.157Z,96.47
2023-02-16T22:14:48.931Z,96.02
2023-02-16T22:16:51.626Z,96.11
2023-02-16T22:19:04.060Z,95.98
2023-02-16T22:21:08.633Z,95.65
2023-02-16T22:23:12.466Z,95.94
2023-02-16T22:25:15.145Z,95.46
2023-02-16T22:27:17.784Z,95.64
2023-02-16T22:29:20.415Z,95.28
2023-02-16T22:31:27.642Z,95.11
2023-02-16T22:33:30.508Z,95.18
2023-02-16T22:35:33.681Z,95.32
2023-02-16T22:37:36.324Z,94.96
2023-02-16T22:39:39.053Z,94.62
2023-02-16T22:41:41.897Z,94.87
2023-02-16T22:43:44.444Z,94.89
2023-02-16T22:45:47.084Z,94.79
2023-02-16T22:47:49.761Z,94.05
2023-02-16T22:49:52.520Z,94.88
2023-02-16T22:51:55.167Z,94.43
2023-02-16T22:53:59.643Z,94.04
2023-02-16T22:56:05.911Z,94.21
2023-02-16T22:58:08.670Z,94.06
2023-02-16T23:00:16.022Z,93.63
2023-02-16T23:02:18.685Z,94.08
2023-02-16T23:04:21.383Z,94.07
2023-02-16T23:06:29.887Z,94.75
2023-02-16T23:08:32.551Z,94.42
2023-02-16T23:10:38.083Z,94.19
2023-02-16T23:12:40.674Z,94.12
2023-02-16T23:14:43.313Z,94.66
2023-02-16T23:16:51.894Z,94.58
2023-02-16T23:18:59.457Z,94.27
2023-02-16T23:21:14.632Z,94.21
2023-02-16T23:23:17.504Z,94.89
2023-02-16T23:25:35.152Z,94.26
2023-02-16T23:27:37.810Z,94.77
2023-02-16T23:29:40.360Z,94.60
2023-02-16T23:31:45.327Z,94.55
2023-02-16T23:33:48.964Z,94.66
2023-02-16T23:35:51.840Z,94.81
2023-02-16T23:37:54.399Z,94.96
2023-02-16T23:39:57.302Z,94.34
2023-02-16T23:41:59.933Z,94.62
2023-02-16T23:44:02.689Z,94.68
2023-02-16T23:46:06.513Z,94.66
2023-02-16T23:48:09.278Z,94.39
2023-02-16T23:50:12.032Z,94.86
2023-02-16T23:52:15.271Z,94.92
2023-02-16T23:54:17.844Z,94.70
2023-02-16T23:56:26.155Z,95.17
2023-02-16T23:58:31.393Z,95.22
